createdAt,value
2022-08-29T00:00:19.971Z, 41.61
2022-08-29T00:01:19.991Z, 41.35
2022-08-29T00:02:20.080Z, 41.43
2022-08-29T00:03:20.131Z, 41.60
2022-08-29T00:04:20.180Z, 41.63
2022-08-29T00:05:20.311Z, 41.63
2022-08-29T00:06:20.172Z, 41.50
2022-08-29T00:07:20.306Z, 41.61
2022-08-29T00:08:20.308Z, 41.48
2022-08-29T00:09:20.312Z, 41.45
2022-08-29T00:10:20.338Z, 41.52
2022-08-29T00:11:20.338Z, 41.53
2022-08-29T00:12:20.487Z, 41.51
2022-08-29T00:13:20.483Z, 41.71
2022-08-29T00:14:23.391Z, 41.50
2022-08-29T00:15:20.487Z, 41.67
2022-08-29T00:16:20.576Z, 41.59
2022-08-29T00:17:20.653Z, 41.60
2022-08-29T00:18:20.666Z, 41.62
2022-08-29T00:19:20.659Z, 41.65
2022-08-29T00:20:20.687Z, 41.49
2022-08-29T00:21:20.656Z, 41.64
2022-08-29T00:22:20.829Z, 41.45
2022-08-29T00:23:20.838Z, 41.36
2022-08-29T00:24:20.832Z, 41.56
2022-08-29T00:25:20.841Z, 41.49
2022-08-29T00:26:20.830Z, 41.48
2022-08-29T00:27:21.005Z, 41.69
2022-08-29T00:28:21.004Z, 41.66
2022-08-29T00:29:21.000Z, 41.61
2022-08-29T00:30:21.007Z, 41.54
2022-08-29T00:31:21.256Z, 41.45
2022-08-29T00:32:21.179Z, 41.46
2022-08-29T00:33:21.178Z, 41.36
2022-08-29T00:34:21.185Z, 41.46
2022-08-29T00:35:21.209Z, 41.36
2022-08-29T00:36:21.186Z, 41.44
2022-08-29T00:37:21.241Z, 41.28
2022-08-29T00:38:21.246Z, 41.32
2022-08-29T00:39:23.194Z, 41.60
2022-08-29T00:40:21.326Z, 41.50
2022-08-29T00:41:21.250Z, 41.48
2022-08-29T00:42:21.270Z, 41.51
2022-08-29T00:43:21.288Z, 41.41
2022-08-29T00:44:21.314Z, 41.43
2022-08-29T00:45:21.345Z, 41.58
2022-08-29T00:46:21.449Z, 41.47
2022-08-29T00:47:21.421Z, 41.37
2022-08-29T00:48:21.443Z, 41.40
2022-08-29T00:49:21.481Z, 41.75
2022-08-29T00:50:21.514Z, 41.44
2022-08-29T00:51:21.559Z, 41.52
2022-08-29T00:52:21.581Z, 41.48
2022-08-29T00:53:21.608Z, 41.48
2022-08-29T00:54:21.668Z, 41.44
2022-08-29T00:55:21.690Z, 41.44
2022-08-29T00:56:21.722Z, 41.69
2022-08-29T00:57:21.812Z, 41.55
2022-08-29T00:58:21.804Z, 41.40
2022-08-29T00:59:21.814Z, 41.57
2022-08-29T01:00:21.895Z, 41.45
2022-08-29T01:01:21.962Z, 41.47
2022-08-29T01:02:21.979Z, 41.44
2022-08-29T01:03:21.930Z, 41.54
2022-08-29T01:04:23.679Z, 41.44
2022-08-29T01:05:22.005Z, 41.42
2022-08-29T01:06:22.035Z, 41.64
2022-08-29T01:07:22.067Z, 41.38
2022-08-29T01:08:22.140Z, 41.38
2022-08-29T01:09:22.196Z, 41.49
2022-08-29T01:10:22.188Z, 41.40
2022-08-29T01:11:22.189Z, 41.53
2022-08-29T01:12:22.283Z, 41.34
2022-08-29T01:13:22.312Z, 41.41
2022-08-29T01:14:22.289Z, 41.40
2022-08-29T01:15:22.368Z, 41.53
2022-08-29T01:16:22.449Z, 41.43
2022-08-29T01:17:22.369Z, 41.46
2022-08-29T01:18:22.416Z, 41.24
2022-08-29T01:19:22.505Z, 41.41
2022-08-29T01:20:22.527Z, 41.33
2022-08-29T01:21:22.517Z, 41.42
2022-08-29T01:22:22.539Z, 41.47
2022-08-29T01:23:22.625Z, 41.37
2022-08-29T01:24:22.665Z, 41.43
2022-08-29T01:25:22.648Z, 41.57
2022-08-29T01:26:22.702Z, 41.40
2022-08-29T01:27:22.792Z, 41.47
2022-08-29T01:28:22.783Z, 41.43
2022-08-29T01:29:22.786Z, 41.55
2022-08-29T01:30:22.836Z, 41.27
2022-08-29T01:31:46.932Z, 41.30
2022-08-29T01:32:22.950Z, 41.46
2022-08-29T01:33:23.005Z, 41.47
2022-08-29T01:34:23.000Z, 41.35
2022-08-29T01:35:22.999Z, 41.36
2022-08-29T01:36:23.037Z, 41.35
2022-08-29T01:37:23.060Z, 41.34
2022-08-29T01:38:23.070Z, 41.57
2022-08-29T01:39:23.143Z, 41.44
2022-08-29T01:40:23.277Z, 41.35
2022-08-29T01:41:23.192Z, 41.36
2022-08-29T01:42:23.229Z, 41.39
2022-08-29T01:43:23.268Z, 41.51
2022-08-29T01:44:23.361Z, 41.53
2022-08-29T01:45:23.470Z, 41.40
2022-08-29T01:46:23.426Z, 41.49
2022-08-29T01:47:23.410Z, 41.27
2022-08-29T01:48:23.430Z, 41.31
2022-08-29T01:49:23.501Z, 41.34
2022-08-29T01:50:23.505Z, 41.38
2022-08-29T01:51:23.544Z, 41.37
2022-08-29T01:52:23.575Z, 41.29
2022-08-29T01:53:23.598Z, 41.37
2022-08-29T01:54:23.631Z, 41.33
2022-08-29T01:55:23.679Z, 41.36
2022-08-29T01:56:23.701Z, 41.49
2022-08-29T01:57:23.746Z, 41.24
2022-08-29T01:58:23.850Z, 41.41
2022-08-29T01:59:23.834Z, 41.31
2022-08-29T02:00:23.849Z, 41.27
2022-08-29T02:01:23.938Z, 41.30
2022-08-29T02:02:24.071Z, 41.35
2022-08-29T02:03:23.986Z, 41.23
2022-08-29T02:04:23.994Z, 41.22
2022-08-29T02:05:24.004Z, 41.34
2022-08-29T02:06:24.034Z, 41.48
2022-08-29T02:07:24.061Z, 41.38
2022-08-29T02:08:24.156Z, 41.34
2022-08-29T02:09:24.131Z, 41.29
2022-08-29T02:10:24.173Z, 41.39
2022-08-29T02:11:24.201Z, 41.35
2022-08-29T02:12:24.241Z, 41.28
2022-08-29T02:13:24.283Z, 41.27
2022-08-29T02:14:24.328Z, 41.35
2022-08-29T02:15:24.327Z, 41.20
2022-08-29T02:16:24.410Z, 41.29
2022-08-29T02:17:24.410Z, 41.28
2022-08-29T02:18:24.459Z, 41.32
2022-08-29T02:19:24.495Z, 41.35
2022-08-29T02:20:24.528Z, 41.31
2022-08-29T02:21:24.569Z, 41.25
2022-08-29T02:22:24.599Z, 41.28
2022-08-29T02:23:30.910Z, 41.26
2022-08-29T02:24:26.116Z, 41.31
2022-08-29T02:25:24.706Z, 41.19
2022-08-29T02:26:24.766Z, 41.47
2022-08-29T02:27:24.786Z, 41.19
2022-08-29T02:28:24.819Z, 41.32
2022-08-29T02:29:24.850Z, 41.49
2022-08-29T02:30:24.877Z, 41.18
2022-08-29T02:31:24.943Z, 41.14
2022-08-29T02:32:25.006Z, 41.37
2022-08-29T02:33:24.995Z, 41.25
2022-08-29T02:34:25.020Z, 41.21
2022-08-29T02:35:25.051Z, 41.31
2022-08-29T02:36:25.122Z, 41.24
2022-08-29T02:37:25.122Z, 41.34
2022-08-29T02:38:25.222Z, 41.13
2022-08-29T02:39:25.209Z, 41.24
2022-08-29T02:40:31.827Z, 41.30
2022-08-29T02:41:25.276Z, 41.24
2022-08-29T02:42:25.362Z, 41.16
2022-08-29T02:43:25.363Z, 41.13
2022-08-29T02:44:25.404Z, 41.13
2022-08-29T02:45:25.392Z, 41.12
2022-08-29T02:46:25.460Z, 41.07
2022-08-29T02:47:25.474Z, 41.17
2022-08-29T02:48:25.490Z, 41.27
2022-08-29T02:49:25.574Z, 41.30
2022-08-29T02:50:25.554Z, 41.30
2022-08-29T02:51:25.657Z, 41.20
2022-08-29T02:52:25.636Z, 41.06
2022-08-29T02:53:25.633Z, 41.02
2022-08-29T02:54:25.665Z, 41.18
2022-08-29T02:55:25.716Z, 41.12
2022-08-29T02:56:25.750Z, 40.92
2022-08-29T02:57:25.797Z, 40.92
2022-08-29T02:58:25.889Z, 41.00
2022-08-29T02:59:25.919Z, 40.94
2022-08-29T03:00:26.009Z, 41.15
2022-08-29T03:01:25.937Z, 41.15
2022-08-29T03:02:26.005Z, 40.97
2022-08-29T03:03:26.066Z, 40.97
2022-08-29T03:04:26.112Z, 40.99
2022-08-29T03:05:26.102Z, 41.01
2022-08-29T03:06:26.125Z, 41.02
2022-08-29T03:07:26.162Z, 41.07
2022-08-29T03:08:26.184Z, 41.21
2022-08-29T03:09:26.212Z, 41.03
2022-08-29T03:10:26.262Z, 41.08
2022-08-29T03:11:26.294Z, 41.07
2022-08-29T03:12:26.335Z, 40.98
2022-08-29T03:13:26.412Z, 41.07
2022-08-29T03:14:26.396Z, 41.08
2022-08-29T03:15:26.492Z, 41.20
2022-08-29T03:16:26.636Z, 40.98
2022-08-29T03:17:26.524Z, 41.01
2022-08-29T03:18:26.586Z, 41.17
2022-08-29T03:19:26.585Z, 41.13
2022-08-29T03:20:26.648Z, 40.93
2022-08-29T03:21:26.681Z, 41.05
2022-08-29T03:22:26.768Z, 41.05
2022-08-29T03:23:26.745Z, 41.09
2022-08-29T03:24:27.200Z, 41.01
2022-08-29T03:25:26.818Z, 40.81
2022-08-29T03:26:26.854Z, 41.10
2022-08-29T03:27:26.964Z, 40.93
2022-08-29T03:28:26.959Z, 41.21
2022-08-29T03:29:26.972Z, 40.97
2022-08-29T03:30:27.003Z, 40.97
2022-08-29T03:31:27.163Z, 40.98
2022-08-29T03:32:27.092Z, 40.98
2022-08-29T03:33:27.121Z, 40.98
2022-08-29T03:34:27.142Z, 41.00
2022-08-29T03:35:27.164Z, 41.06
2022-08-29T03:36:27.245Z, 41.03
2022-08-29T03:37:27.295Z, 40.91
2022-08-29T03:38:27.282Z, 40.95
2022-08-29T03:39:27.318Z, 40.81
2022-08-29T03:40:27.476Z, 40.82
2022-08-29T03:41:27.364Z, 41.01
2022-08-29T03:42:27.407Z, 41.08
2022-08-29T03:43:27.433Z, 40.92
2022-08-29T03:44:27.527Z, 40.91
2022-08-29T03:45:27.519Z, 40.88
2022-08-29T03:46:27.678Z, 40.94
2022-08-29T03:47:27.653Z, 41.00
2022-08-29T03:48:27.653Z, 40.93
2022-08-29T03:49:27.643Z, 40.91
2022-08-29T03:50:27.675Z, 41.01
2022-08-29T03:51:29.434Z, 40.95
2022-08-29T03:52:27.743Z, 40.79
2022-08-29T03:53:27.755Z, 40.81
2022-08-29T03:54:27.812Z, 40.82
2022-08-29T03:55:27.851Z, 40.90
2022-08-29T03:56:27.890Z, 41.07
2022-08-29T03:57:28.234Z, 40.91
2022-08-29T03:58:27.962Z, 37.21
2022-08-29T03:59:27.994Z, 37.14
2022-08-29T04:00:28.005Z, 37.15
2022-08-29T04:01:28.129Z, 37.06
2022-08-29T04:02:28.194Z, 37.15
2022-08-29T04:03:31.355Z, 37.36
2022-08-29T04:04:28.159Z, 37.27
2022-08-29T04:05:28.225Z, 37.19
2022-08-29T04:06:28.269Z, 37.18
2022-08-29T04:07:28.237Z, 37.33
2022-08-29T04:08:28.245Z, 37.32
2022-08-29T04:09:28.328Z, 37.33
2022-08-29T04:10:28.382Z, 37.34
2022-08-29T04:11:28.368Z, 37.55
2022-08-29T04:12:28.439Z, 37.32
2022-08-29T04:13:28.441Z, 37.34
2022-08-29T04:14:28.508Z, 37.35
2022-08-29T04:15:28.528Z, 37.42
2022-08-29T04:16:30.792Z, 37.41
2022-08-29T04:17:28.594Z, 37.37
2022-08-29T04:18:28.584Z, 37.38
2022-08-29T04:19:28.606Z, 37.48
2022-08-29T04:20:28.644Z, 37.32
2022-08-29T04:21:28.686Z, 37.45
2022-08-29T04:22:28.691Z, 37.49
2022-08-29T04:23:28.727Z, 37.47
2022-08-29T04:24:28.766Z, 37.44
2022-08-29T04:25:28.871Z, 37.53
2022-08-29T04:26:36.879Z, 37.40
2022-08-29T04:27:28.887Z, 37.50
2022-08-29T04:28:28.902Z, 37.64
2022-08-29T04:29:28.925Z, 37.44
2022-08-29T04:30:29.029Z, 37.41
2022-08-29T04:31:29.094Z, 37.64
2022-08-29T04:32:29.030Z, 37.45
2022-08-29T04:33:29.064Z, 37.60
2022-08-29T04:34:29.092Z, 37.47
2022-08-29T04:35:29.188Z, 37.43
2022-08-29T04:36:29.210Z, 37.64
2022-08-29T04:37:29.245Z, 37.55
2022-08-29T04:38:29.237Z, 37.56
2022-08-29T04:39:29.265Z, 37.40
2022-08-29T04:40:29.391Z, 37.43
2022-08-29T04:41:29.362Z, 37.60
2022-08-29T04:42:29.357Z, 37.48
2022-08-29T04:43:29.384Z, 37.48
2022-08-29T04:44:29.416Z, 37.74
2022-08-29T04:45:29.440Z, 37.68
2022-08-29T04:46:29.517Z, 37.56
2022-08-29T04:47:29.578Z, 37.51
2022-08-29T04:48:29.614Z, 37.29
2022-08-29T04:49:29.659Z, 37.24
2022-08-29T04:50:29.703Z, 37.59
2022-08-29T04:51:29.680Z, 37.49
2022-08-29T04:52:29.674Z, 37.57
2022-08-29T04:53:29.728Z, 37.41
2022-08-29T04:54:29.813Z, 37.47
2022-08-29T04:55:29.806Z, 37.33
2022-08-29T04:56:29.864Z, 37.67
2022-08-29T04:57:29.838Z, 37.45
2022-08-29T04:58:29.901Z, 37.58
2022-08-29T04:59:29.881Z, 37.38
2022-08-29T05:00:30.318Z, 37.42
2022-08-29T05:01:29.954Z, 37.56
2022-08-29T05:02:30.100Z, 37.45
2022-08-29T05:03:30.084Z, 37.55
2022-08-29T05:04:30.069Z, 37.28
2022-08-29T05:05:30.102Z, 37.38
2022-08-29T05:06:30.205Z, 37.36
2022-08-29T05:07:30.190Z, 37.39
2022-08-29T05:08:30.190Z, 37.50
2022-08-29T05:09:30.232Z, 37.52
2022-08-29T05:10:30.266Z, 37.39
2022-08-29T05:11:30.300Z, 37.67
2022-08-29T05:12:30.348Z, 37.46
2022-08-29T05:13:30.367Z, 37.47
2022-08-29T05:14:30.459Z, 37.34
2022-08-29T05:15:30.562Z, 37.29
2022-08-29T05:16:30.529Z, 37.40
2022-08-29T05:17:30.510Z, 37.44
2022-08-29T05:18:30.551Z, 37.44
2022-08-29T05:19:34.369Z, 37.51
2022-08-29T05:20:30.616Z, 37.39
2022-08-29T05:21:30.672Z, 37.53
2022-08-29T05:22:30.672Z, 37.49
2022-08-29T05:23:30.700Z, 37.32
2022-08-29T05:24:30.745Z, 37.36
2022-08-29T05:25:30.784Z, 37.39
2022-08-29T05:26:30.870Z, 37.39
2022-08-29T05:27:30.912Z, 37.40
2022-08-29T05:28:30.912Z, 37.46
2022-08-29T05:29:30.933Z, 37.47
2022-08-29T05:30:34.313Z, 37.52
2022-08-29T05:31:31.119Z, 37.39
2022-08-29T05:32:31.063Z, 37.45
2022-08-29T05:33:31.080Z, 37.49
2022-08-29T05:34:34.683Z, 37.41
2022-08-29T05:35:31.109Z, 37.60
2022-08-29T05:36:31.145Z, 37.40
2022-08-29T05:37:31.175Z, 37.59
2022-08-29T05:38:31.242Z, 37.48
2022-08-29T05:39:31.242Z, 37.45
2022-08-29T05:40:31.361Z, 37.44
2022-08-29T05:41:31.281Z, 37.54
2022-08-29T05:42:31.389Z, 37.46
2022-08-29T05:43:31.382Z, 37.59
2022-08-29T05:44:34.956Z, 37.51
2022-08-29T05:45:31.423Z, 37.44
2022-08-29T05:46:31.483Z, 37.58
2022-08-29T05:47:31.496Z, 37.62
2022-08-29T05:48:31.597Z, 37.48
2022-08-29T05:49:31.648Z, 37.58
2022-08-29T05:50:31.631Z, 37.52
2022-08-29T05:51:34.956Z, 37.39
2022-08-29T05:52:31.681Z, 37.43
2022-08-29T05:53:31.719Z, 37.58
2022-08-29T05:54:31.767Z, 37.48
2022-08-29T05:55:31.875Z, 37.71
2022-08-29T05:56:31.836Z, 37.65
2022-08-29T05:57:31.944Z, 37.67
2022-08-29T05:58:31.941Z, 37.62
2022-08-29T05:59:32.000Z, 37.57
2022-08-29T06:00:31.980Z, 37.50
2022-08-29T06:01:32.889Z, 37.64
2022-08-29T06:02:32.169Z, 37.68
2022-08-29T06:03:32.227Z, 37.69
2022-08-29T06:04:32.102Z, 37.61
2022-08-29T06:05:32.136Z, 37.71
2022-08-29T06:06:32.174Z, 37.70
2022-08-29T06:07:32.202Z, 37.64
2022-08-29T06:08:32.226Z, 37.80
2022-08-29T06:09:32.260Z, 37.73
2022-08-29T06:10:32.291Z, 37.71
2022-08-29T06:11:32.345Z, 37.64
2022-08-29T06:12:32.427Z, 37.68
2022-08-29T06:13:32.466Z, 37.72
2022-08-29T06:14:32.447Z, 37.82
2022-08-29T06:15:32.507Z, 37.97
2022-08-29T06:16:32.552Z, 37.80
2022-08-29T06:17:32.523Z, 37.85
2022-08-29T06:18:35.993Z, 37.77
2022-08-29T06:19:32.643Z, 37.89
2022-08-29T06:20:32.641Z, 37.80
2022-08-29T06:21:32.651Z, 37.92
2022-08-29T06:22:34.300Z, 37.75
2022-08-29T06:23:32.704Z, 37.98
2022-08-29T06:24:32.747Z, 37.94
2022-08-29T06:25:39.886Z, 37.86
2022-08-29T06:26:32.819Z, 38.08
2022-08-29T06:27:32.861Z, 37.90
2022-08-29T06:28:32.897Z, 37.98
2022-08-29T06:29:32.928Z, 37.90
2022-08-29T06:30:33.017Z, 37.78
2022-08-29T06:31:33.067Z, 38.05
2022-08-29T06:32:33.015Z, 37.80
2022-08-29T06:33:33.047Z, 37.94
2022-08-29T06:34:33.122Z, 37.80
2022-08-29T06:35:33.142Z, 38.11
2022-08-29T06:36:33.167Z, 37.92
2022-08-29T06:37:33.199Z, 37.81
2022-08-29T06:38:33.295Z, 37.86
2022-08-29T06:39:33.271Z, 37.96
2022-08-29T06:40:33.354Z, 38.07
2022-08-29T06:41:33.328Z, 38.00
2022-08-29T06:42:33.358Z, 37.98
2022-08-29T06:43:33.476Z, 38.06
2022-08-29T06:44:33.432Z, 37.93
2022-08-29T06:45:33.448Z, 38.04
2022-08-29T06:46:33.601Z, 38.05
2022-08-29T06:47:33.598Z, 37.90
2022-08-29T06:48:33.611Z, 38.00
2022-08-29T06:49:33.640Z, 38.12
2022-08-29T06:50:33.638Z, 37.92
2022-08-29T06:51:33.793Z, 38.07
2022-08-29T06:52:33.708Z, 38.09
2022-08-29T06:53:37.392Z, 37.85
2022-08-29T06:54:33.759Z, 37.93
2022-08-29T06:55:33.843Z, 37.92
2022-08-29T06:56:33.904Z, 38.00
2022-08-29T06:57:33.899Z, 38.02
2022-08-29T06:58:33.920Z, 38.07
2022-08-29T06:59:33.958Z, 38.20
2022-08-29T07:00:34.054Z, 38.07
2022-08-29T07:01:34.317Z, 37.84
2022-08-29T07:02:34.128Z, 37.97
2022-08-29T07:03:34.103Z, 38.25
2022-08-29T07:04:34.153Z, 37.98
2022-08-29T07:05:34.194Z, 38.07
2022-08-29T07:06:34.250Z, 37.96
2022-08-29T07:07:35.905Z, 37.88
2022-08-29T07:08:34.294Z, 37.95
2022-08-29T07:09:34.323Z, 37.86
2022-08-29T07:10:34.345Z, 37.97
2022-08-29T07:11:39.022Z, 37.93
2022-08-29T07:12:34.426Z, 37.99
2022-08-29T07:13:34.541Z, 38.03
2022-08-29T07:14:34.519Z, 38.20
2022-08-29T07:15:34.557Z, 38.01
2022-08-29T07:16:34.571Z, 38.00
2022-08-29T07:17:34.599Z, 38.01
2022-08-29T07:18:34.647Z, 38.10
2022-08-29T07:19:34.705Z, 38.08
2022-08-29T07:20:34.775Z, 38.15
2022-08-29T07:21:34.765Z, 38.13
2022-08-29T07:22:34.780Z, 38.17
2022-08-29T07:23:34.802Z, 38.06
2022-08-29T07:24:34.857Z, 38.03
2022-08-29T07:25:34.873Z, 38.07
2022-08-29T07:26:34.897Z, 38.63
2022-08-29T07:27:34.945Z, 38.32
2022-08-29T07:28:34.978Z, 38.01
2022-08-29T07:29:35.017Z, 38.01
2022-08-29T07:30:35.087Z, 38.09
2022-08-29T07:31:35.084Z, 38.23
2022-08-29T07:32:35.111Z, 38.49
2022-08-29T07:33:35.200Z, 38.12
2022-08-29T07:34:35.212Z, 38.17
2022-08-29T07:35:35.246Z, 38.10
2022-08-29T07:36:35.298Z, 38.19
2022-08-29T07:37:35.355Z, 38.13
2022-08-29T07:38:35.688Z, 38.14
2022-08-29T07:39:35.432Z, 38.26
2022-08-29T07:40:35.475Z, 38.04
2022-08-29T07:41:35.484Z, 38.21
2022-08-29T07:42:35.489Z, 38.21
2022-08-29T07:43:35.538Z, 38.21
2022-08-29T07:44:35.614Z, 38.20
2022-08-29T07:45:35.657Z, 38.19
2022-08-29T07:46:35.643Z, 38.24
2022-08-29T07:47:35.646Z, 38.29
2022-08-29T07:48:35.681Z, 38.21
2022-08-29T07:49:41.150Z, 38.24
2022-08-29T07:50:35.770Z, 38.30
2022-08-29T07:51:35.861Z, 38.21
2022-08-29T07:52:35.844Z, 38.13
2022-08-29T07:53:35.868Z, 38.16
2022-08-29T07:54:35.959Z, 38.16
2022-08-29T07:55:35.979Z, 38.23
2022-08-29T07:56:37.921Z, 38.26
2022-08-29T07:57:39.664Z, 38.34
2022-08-29T07:58:36.023Z, 38.38
2022-08-29T07:59:36.121Z, 38.68
2022-08-29T08:00:36.110Z, 38.21
2022-08-29T08:01:36.172Z, 38.44
2022-08-29T08:02:36.245Z, 38.22
2022-08-29T08:03:36.179Z, 38.41
2022-08-29T08:04:36.225Z, 38.32
2022-08-29T08:05:36.275Z, 38.22
2022-08-29T08:06:36.316Z, 38.39
2022-08-29T08:07:36.340Z, 38.26
2022-08-29T08:08:36.355Z, 38.07
2022-08-29T08:09:36.376Z, 38.41
2022-08-29T08:10:36.415Z, 38.40
2022-08-29T08:11:36.521Z, 38.22
2022-08-29T08:12:36.553Z, 38.20
2022-08-29T08:13:36.535Z, 38.12
2022-08-29T08:14:36.615Z, 38.10
2022-08-29T08:15:36.675Z, 38.35
2022-08-29T08:16:36.711Z, 38.47
2022-08-29T08:17:38.942Z, 38.16
2022-08-29T08:18:36.764Z, 38.51
2022-08-29T08:19:36.815Z, 38.35
2022-08-29T08:20:36.780Z, 38.36
2022-08-29T08:21:36.877Z, 38.24
2022-08-29T08:22:36.906Z, 38.39
2022-08-29T08:23:36.929Z, 38.53
2022-08-29T08:24:36.939Z, 38.28
2022-08-29T08:25:36.957Z, 38.39
2022-08-29T08:26:36.986Z, 38.62
2022-08-29T08:27:40.644Z, 38.64
2022-08-29T08:28:37.049Z, 38.21
2022-08-29T08:29:37.067Z, 38.38
2022-08-29T08:30:37.276Z, 38.47
2022-08-29T08:31:37.181Z, 38.63
2022-08-29T08:32:37.148Z, 38.48
2022-08-29T08:33:37.239Z, 38.36
2022-08-29T08:34:37.225Z, 38.64
2022-08-29T08:35:37.261Z, 38.38
2022-08-29T08:36:40.786Z, 38.37
2022-08-29T08:37:37.315Z, 38.71
2022-08-29T08:38:37.347Z, 38.39
2022-08-29T08:39:37.370Z, 38.32
2022-08-29T08:40:37.643Z, 38.56
2022-08-29T08:41:37.522Z, 38.40
2022-08-29T08:42:37.506Z, 38.34
2022-08-29T08:43:37.559Z, 38.45
2022-08-29T08:44:37.567Z, 38.35
2022-08-29T08:45:37.733Z, 38.57
2022-08-29T08:46:37.661Z, 38.43
2022-08-29T08:47:37.670Z, 38.81
2022-08-29T08:48:37.743Z, 38.80
2022-08-29T08:49:37.754Z, 38.98
2022-08-29T08:50:37.787Z, 38.59
2022-08-29T08:51:37.828Z, 38.59
2022-08-29T08:52:37.856Z, 38.40
2022-08-29T08:53:37.893Z, 38.64
2022-08-29T08:54:37.919Z, 38.58
2022-08-29T08:55:37.941Z, 38.53
2022-08-29T08:56:37.983Z, 38.60
2022-08-29T08:57:38.015Z, 38.71
2022-08-29T08:58:38.113Z, 38.75
2022-08-29T08:59:38.146Z, 38.88
2022-08-29T09:00:38.143Z, 38.52
2022-08-29T09:01:38.219Z, 38.90
2022-08-29T09:02:38.218Z, 38.72
2022-08-29T09:03:38.273Z, 38.41
2022-08-29T09:04:38.264Z, 38.69
2022-08-29T09:05:39.487Z, 38.81
2022-08-29T09:06:38.351Z, 38.53
2022-08-29T09:07:38.406Z, 38.75
2022-08-29T09:08:38.428Z, 38.78
2022-08-29T09:09:38.461Z, 39.09
2022-08-29T09:10:38.548Z, 39.16
2022-08-29T09:11:38.595Z, 38.98
2022-08-29T09:12:38.573Z, 39.11
2022-08-29T09:13:38.605Z, 38.68
2022-08-29T09:14:38.712Z, 38.66
2022-08-29T09:15:38.690Z, 38.68
2022-08-29T09:16:38.807Z, 38.81
2022-08-29T09:17:38.782Z, 38.72
2022-08-29T09:18:38.820Z, 38.92
2022-08-29T09:19:38.808Z, 38.87
2022-08-29T09:20:38.845Z, 38.87
2022-08-29T09:21:41.662Z, 38.69
2022-08-29T09:22:39.013Z, 38.62
2022-08-29T09:23:38.971Z, 38.86
2022-08-29T09:24:39.012Z, 39.02
2022-08-29T09:25:39.024Z, 38.91
2022-08-29T09:26:39.051Z, 38.89
2022-08-29T09:27:39.106Z, 38.59
2022-08-29T09:28:39.201Z, 39.03
2022-08-29T09:29:39.242Z, 38.92
2022-08-29T09:30:39.309Z, 38.90
2022-08-29T09:31:39.348Z, 38.91
2022-08-29T09:32:39.287Z, 38.71
2022-08-29T09:33:39.359Z, 38.86
2022-08-29T09:34:57.432Z, 38.63
2022-08-29T09:35:39.352Z, 38.80
2022-08-29T09:36:39.434Z, 38.69
2022-08-29T09:37:39.491Z, 38.72
2022-08-29T09:38:39.474Z, 39.05
2022-08-29T09:39:39.504Z, 38.67
2022-08-29T09:40:39.649Z, 38.94
2022-08-29T09:41:39.561Z, 38.96
2022-08-29T09:42:39.626Z, 38.81
2022-08-29T09:43:39.617Z, 38.65
2022-08-29T09:44:39.733Z, 39.33
2022-08-29T09:45:39.733Z, 39.24
2022-08-29T09:46:39.743Z, 38.73
2022-08-29T09:47:39.780Z, 39.08
2022-08-29T09:48:39.805Z, 38.84
2022-08-29T09:49:39.843Z, 38.85
2022-08-29T09:50:39.882Z, 39.15
2022-08-29T09:51:39.938Z, 39.03
2022-08-29T09:52:39.969Z, 38.78
2022-08-29T09:53:39.992Z, 38.94
2022-08-29T09:54:40.028Z, 38.79
2022-08-29T09:55:40.043Z, 38.88
2022-08-29T09:56:40.074Z, 38.78
2022-08-29T09:57:40.110Z, 38.89
2022-08-29T09:58:40.487Z, 38.92
2022-08-29T09:59:41.889Z, 39.01
2022-08-29T10:00:40.390Z, 39.01
2022-08-29T10:01:40.297Z, 39.08
2022-08-29T10:02:40.374Z, 39.06
2022-08-29T10:03:41.109Z, 38.92
2022-08-29T10:04:40.320Z, 39.08
2022-08-29T10:05:40.366Z, 39.09
2022-08-29T10:06:44.481Z, 39.10
2022-08-29T10:07:40.457Z, 38.90
2022-08-29T10:08:40.554Z, 38.97
2022-08-29T10:09:40.589Z, 39.04
2022-08-29T10:10:40.557Z, 39.16
2022-08-29T10:11:40.571Z, 39.00
2022-08-29T10:12:40.631Z, 39.09
2022-08-29T10:13:40.652Z, 39.02
2022-08-29T10:14:40.683Z, 38.89
2022-08-29T10:15:50.619Z, 38.94
2022-08-29T10:16:40.934Z, 38.99
2022-08-29T10:17:40.789Z, 39.31
2022-08-29T10:18:40.804Z, 38.73
2022-08-29T10:19:40.853Z, 38.79
2022-08-29T10:20:40.941Z, 39.10
2022-08-29T10:21:40.958Z, 39.43
2022-08-29T10:22:40.962Z, 39.28
2022-08-29T10:23:41.038Z, 39.16
2022-08-29T10:24:41.077Z, 39.06
2022-08-29T10:25:41.114Z, 39.09
2022-08-29T10:26:41.092Z, 39.15
2022-08-29T10:27:41.199Z, 39.05
2022-08-29T10:28:41.244Z, 39.28
2022-08-29T10:29:41.235Z, 38.96
2022-08-29T10:30:41.250Z, 39.10
2022-08-29T10:31:41.395Z, 39.15
2022-08-29T10:32:41.316Z, 39.44
2022-08-29T10:33:41.382Z, 39.20
2022-08-29T10:34:41.436Z, 39.38
2022-08-29T10:35:41.422Z, 39.11
2022-08-29T10:36:41.514Z, 39.18
2022-08-29T10:37:41.511Z, 39.29
2022-08-29T10:38:41.538Z, 39.45
2022-08-29T10:39:41.594Z, 39.23
2022-08-29T10:40:43.163Z, 38.97
2022-08-29T10:41:41.681Z, 39.43
2022-08-29T10:42:41.685Z, 39.41
2022-08-29T10:43:41.697Z, 39.19
2022-08-29T10:44:41.793Z, 39.25
2022-08-29T10:45:41.861Z, 39.58
2022-08-29T10:46:41.835Z, 39.22
2022-08-29T10:47:41.880Z, 39.04
2022-08-29T10:48:41.906Z, 38.92
2022-08-29T10:49:44.822Z, 38.96
2022-08-29T10:50:44.426Z, 39.03
2022-08-29T10:51:42.006Z, 39.27
2022-08-29T10:52:42.089Z, 39.11
2022-08-29T10:53:42.070Z, 39.51
2022-08-29T10:54:42.078Z, 39.16
2022-08-29T10:55:42.112Z, 39.22
2022-08-29T10:56:42.188Z, 39.21
2022-08-29T10:57:42.202Z, 38.95
2022-08-29T10:58:42.202Z, 38.95
2022-08-29T10:59:42.245Z, 39.29
2022-08-29T11:00:42.321Z, 39.33
2022-08-29T11:01:42.455Z, 39.01
2022-08-29T11:02:42.323Z, 38.97
2022-08-29T11:03:42.461Z, 39.28
2022-08-29T11:04:42.406Z, 39.21
2022-08-29T11:05:42.441Z, 39.21
2022-08-29T11:06:42.530Z, 39.01
2022-08-29T11:07:42.521Z, 38.74
2022-08-29T11:08:42.590Z, 38.38
2022-08-29T11:09:42.559Z, 38.59
2022-08-29T11:10:42.587Z, 38.37
2022-08-29T11:11:42.662Z, 39.28
2022-08-29T11:12:42.656Z, 39.29
2022-08-29T11:13:42.681Z, 39.11
2022-08-29T11:14:42.730Z, 38.92
2022-08-29T11:15:42.760Z, 39.40
2022-08-29T11:16:42.844Z, 39.42
2022-08-29T11:17:42.842Z, 39.46
2022-08-29T11:18:42.940Z, 39.17
2022-08-29T11:19:42.906Z, 39.07
2022-08-29T11:20:42.901Z, 39.31
2022-08-29T11:21:43.012Z, 39.03
2022-08-29T11:22:42.992Z, 39.34
2022-08-29T11:23:43.005Z, 39.36
2022-08-29T11:24:46.988Z, 39.37
2022-08-29T11:25:43.073Z, 39.45
2022-08-29T11:26:43.120Z, 39.32
2022-08-29T11:27:43.159Z, 39.51
2022-08-29T11:29:43.283Z, 39.26
2022-08-29T11:30:47.839Z, 39.22
2022-08-29T11:31:43.339Z, 38.92
2022-08-29T11:32:43.316Z, 38.95
2022-08-29T11:33:43.324Z, 39.15
2022-08-29T11:34:43.360Z, 39.01
2022-08-29T11:35:43.413Z, 38.83
2022-08-29T11:36:43.448Z, 39.11
2022-08-29T11:37:43.490Z, 39.03
2022-08-29T11:38:43.514Z, 39.08
2022-08-29T11:39:43.588Z, 38.99
2022-08-29T11:41:25.824Z, 39.42
2022-08-29T11:41:43.730Z, 39.03
2022-08-29T11:42:51.316Z, 39.35
2022-08-29T11:43:43.759Z, 39.28
2022-08-29T11:44:43.792Z, 39.27
2022-08-29T11:45:43.823Z, 39.04
2022-08-29T11:46:43.948Z, 38.84
2022-08-29T11:47:43.920Z, 39.29
2022-08-29T11:48:43.879Z, 39.53
2022-08-29T11:49:43.932Z, 39.20
2022-08-29T11:50:43.970Z, 39.52
2022-08-29T11:51:43.966Z, 39.01
2022-08-29T11:52:44.058Z, 39.09
2022-08-29T11:53:44.041Z, 38.91
2022-08-29T11:54:44.053Z, 39.20
2022-08-29T11:55:44.159Z, 39.32
2022-08-29T11:56:44.140Z, 39.38
2022-08-29T11:57:44.226Z, 39.22
2022-08-29T11:58:46.099Z, 39.34
2022-08-29T11:59:44.314Z, 39.30
2022-08-29T12:00:44.328Z, 38.87
2022-08-29T12:01:44.343Z, 39.03
2022-08-29T12:02:48.748Z, 39.23
2022-08-29T12:03:44.408Z, 39.11
2022-08-29T12:04:44.505Z, 39.34
2022-08-29T12:05:44.460Z, 39.51
2022-08-29T12:06:44.497Z, 39.65
2022-08-29T12:07:44.614Z, 39.47
2022-08-29T12:08:44.576Z, 39.27
2022-08-29T12:09:44.621Z, 39.53
2022-08-29T12:10:44.610Z, 39.53
2022-08-29T12:11:44.642Z, 39.35
2022-08-29T12:12:44.681Z, 39.75
2022-08-29T12:13:44.766Z, 39.44
2022-08-29T12:14:44.811Z, 39.21
2022-08-29T12:15:44.790Z, 39.21
2022-08-29T12:16:44.916Z, 39.36
2022-08-29T12:18:00.380Z, 39.76
2022-08-29T12:18:44.881Z, 39.58
2022-08-29T12:19:44.902Z, 39.38
2022-08-29T12:20:44.992Z, 39.35
2022-08-29T12:21:45.015Z, 39.05
2022-08-29T12:23:45.109Z, 39.46
2022-08-29T12:24:57.165Z, 39.33
2022-08-29T12:25:45.174Z, 39.13
2022-08-29T12:26:45.149Z, 39.58
2022-08-29T12:27:45.175Z, 39.12
2022-08-29T12:28:45.202Z, 39.13
2022-08-29T12:29:45.270Z, 39.44
2022-08-29T12:30:45.334Z, 39.44